Terminal Aerodrome Forecast
Issued by NWS Twin Cities, MN

Home | Current Version | Previous Version | Graphics & Text | Print | Product List | Glossary On
Versions: 1 2 3 4 5 6 7 8 9 10 11 12 13
128
FTUS43 KMPX 221120
TAFEAU
TAF
KEAU 221120Z 2212/2312 VRB02KT P6SM FEW250
     FM221500 23004KT P6SM SKC
     FM221800 27008KT P6SM SKC
     FM230200 21004KT P6SM SKC=

USA.gov is the U.S. government's official web portal to all federal, state and local government web resources and services.